createdAt,value
2023-02-13T00:01:45.190Z,103670.13
2023-02-13T00:03:46.857Z,103664.81
2023-02-13T00:05:49.965Z,103655.69
2023-02-13T00:07:51.788Z,103658.41
2023-02-13T00:09:53.646Z,103657.53
2023-02-13T00:11:55.518Z,103659.38
2023-02-13T00:13:58.337Z,103655.81
2023-02-13T00:16:02.242Z,103662.97
2023-02-13T00:18:04.405Z,103660.25
2023-02-13T00:20:07.774Z,103653.09
2023-02-13T00:22:10.744Z,103662.09
2023-02-13T00:24:12.517Z,103662.09
2023-02-13T00:26:15.998Z,103654.97
2023-02-13T00:28:17.666Z,103651.25
2023-02-13T00:30:19.619Z,103659.38
2023-02-13T00:32:21.170Z,103658.66
2023-02-13T00:34:22.983Z,103656.81
2023-02-13T00:36:25.129Z,103654.09
2023-02-13T00:38:29.589Z,103659.63
2023-02-13T00:40:31.225Z,103660.63
2023-02-13T00:42:32.930Z,103661.47
2023-02-13T00:44:34.580Z,103662.34
2023-02-13T00:46:36.239Z,103668.75
2023-02-13T00:48:39.118Z,103670.47
2023-02-13T00:50:40.958Z,103673.19
2023-02-13T00:52:42.794Z,103667.03
2023-02-13T00:54:45.687Z,103667.91
2023-02-13T00:56:47.522Z,103668.88
2023-02-13T00:58:49.657Z,103667.03
2023-02-13T01:00:53.930Z,103669.88
2023-02-13T01:02:55.884Z,103673.44
2023-02-13T01:04:57.716Z,103667.28
2023-02-13T01:06:59.226Z,103675.28
2023-02-13T01:09:00.781Z,103674.31
2023-02-13T01:11:03.849Z,103665.31
2023-02-13T01:13:06.572Z,103668.03
2023-02-13T01:15:08.939Z,103666.28
2023-02-13T01:17:10.572Z,103674.41
2023-02-13T01:19:12.161Z,103680.72
2023-02-13T01:21:18.036Z,103679.72
2023-02-13T01:23:19.881Z,103675.44
2023-02-13T01:25:21.931Z,103678.97
2023-02-13T01:27:24.950Z,103677.13
2023-02-13T01:29:26.489Z,103669.13
2023-02-13T01:31:28.724Z,103677.28
2023-02-13T01:33:30.803Z,103673.69
2023-02-13T01:35:32.354Z,103664.69
2023-02-13T01:37:35.223Z,103665.56
2023-02-13T01:39:37.097Z,103664.69
2023-02-13T01:41:38.802Z,103663.81
2023-02-13T01:43:47.282Z,103662.94
2023-02-13T01:45:52.853Z,103663.09
2023-02-13T01:47:58.089Z,103656.81
2023-02-13T01:50:07.242Z,103660.50
2023-02-13T01:52:10.752Z,103655.06
2023-02-13T01:54:17.317Z,103654.19
2023-02-13T01:56:25.179Z,103656.03
2023-02-13T01:58:32.268Z,103646.22
2023-02-13T02:00:36.837Z,103645.19
2023-02-13T02:02:44.095Z,103639.03
2023-02-13T02:04:48.702Z,103644.47
2023-02-13T02:06:55.570Z,103641.88
2023-02-13T02:09:03.355Z,103639.16
2023-02-13T02:11:11.922Z,103641.00
2023-02-13T02:13:15.782Z,103647.28
2023-02-13T02:15:18.345Z,103639.28
2023-02-13T02:17:22.555Z,103643.84
2023-02-13T02:19:38.947Z,103641.13
2023-02-13T02:22:01.529Z,103636.59
2023-02-13T02:24:36.953Z,103634.84
2023-02-13T02:26:59.861Z,103630.53
2023-02-13T02:29:32.155Z,103641.25
2023-02-13T02:32:09.535Z,103637.81
2023-02-13T02:34:23.898Z,103633.47
2023-02-13T02:36:42.488Z,103635.34
2023-02-13T02:39:00.412Z,103632.75
2023-02-13T02:41:10.029Z,103636.44
2023-02-13T02:43:29.885Z,103629.16
2023-02-13T02:45:40.308Z,103639.13
2023-02-13T02:47:51.575Z,103635.69
2023-02-13T02:50:03.519Z,103631.25
2023-02-13T02:52:08.713Z,103631.25
2023-02-13T02:54:16.601Z,103617.69
2023-02-13T02:56:23.846Z,103618.81
2023-02-13T02:58:33.600Z,103620.56
2023-02-13T03:00:41.045Z,103621.53
2023-02-13T03:02:42.681Z,103622.50
2023-02-13T03:04:48.774Z,103625.09
2023-02-13T03:06:56.444Z,103620.66
2023-02-13T03:09:01.828Z,103608.09
2023-02-13T03:11:03.742Z,103615.34
2023-02-13T03:13:10.408Z,103616.34
2023-02-13T03:15:12.296Z,103623.63
2023-02-13T03:17:16.962Z,103624.59
2023-02-13T03:19:28.643Z,103620.91
2023-02-13T03:21:41.308Z,103621.78
2023-02-13T03:23:58.088Z,103613.75
2023-02-13T03:26:21.486Z,103611.78
2023-02-13T03:28:33.070Z,103613.75
2023-02-13T03:30:46.057Z,103622.84
2023-02-13T03:32:58.131Z,103612.03
2023-02-13T03:35:14.930Z,103609.31
2023-02-13T03:37:20.947Z,103632.72
2023-02-13T03:39:37.318Z,103623.72
2023-02-13T03:41:43.904Z,103618.31
2023-02-13T03:43:55.333Z,103623.88
2023-02-13T03:45:58.061Z,103617.44
2023-02-13T03:48:03.592Z,103613.03
2023-02-13T03:50:08.670Z,103619.41
2023-02-13T03:52:18.133Z,103620.28
2023-02-13T03:54:23.986Z,103623.00
2023-02-13T03:56:29.730Z,103632.00
2023-02-13T03:58:35.117Z,103628.41
2023-02-13T04:00:41.801Z,103625.72
2023-02-13T04:02:54.355Z,103637.53
2023-02-13T04:05:05.314Z,103640.13
2023-02-13T04:07:11.597Z,103637.53
2023-02-13T04:09:13.742Z,103634.81
2023-02-13T04:11:21.943Z,103637.53
2023-02-13T04:13:32.446Z,103633.84
2023-02-13T04:15:40.403Z,103641.97
2023-02-13T04:17:49.132Z,103644.69
2023-02-13T04:19:51.278Z,103643.91
2023-02-13T04:21:57.560Z,103646.53
2023-02-13T04:23:59.122Z,103642.06
2023-02-13T04:26:03.913Z,103638.50
2023-02-13T04:28:05.868Z,103639.38
2023-02-13T04:30:10.315Z,103638.38
2023-02-13T04:32:12.145Z,103645.66
2023-02-13T04:34:13.717Z,103633.06
2023-02-13T04:36:15.266Z,103629.50
2023-02-13T04:38:16.900Z,103631.38
2023-02-13T04:40:18.813Z,103634.91
2023-02-13T04:42:20.607Z,103641.22
2023-02-13T04:44:22.380Z,103644.06
2023-02-13T04:46:25.518Z,103642.22
2023-02-13T04:48:27.099Z,103643.03
2023-02-13T04:50:29.058Z,103641.34
2023-02-13T04:52:30.889Z,103637.63
2023-02-13T04:54:32.435Z,103638.63
2023-02-13T04:56:34.086Z,103638.63
2023-02-13T04:58:35.626Z,103630.50
2023-02-13T05:00:37.281Z,103636.91
2023-02-13T05:02:40.229Z,103630.59
2023-02-13T05:04:41.960Z,103628.78
2023-02-13T05:06:43.527Z,103636.03
2023-02-13T05:08:45.166Z,103640.72
2023-02-13T05:10:47.005Z,103639.72
2023-02-13T05:12:48.654Z,103641.56
2023-02-13T05:14:50.412Z,103638.00
2023-02-13T05:16:52.013Z,103639.84
2023-02-13T05:18:55.472Z,103638.97
2023-02-13T05:20:57.647Z,103641.69
2023-02-13T05:22:59.417Z,103640.81
2023-02-13T05:25:01.053Z,103647.22
2023-02-13T05:27:02.674Z,103649.06
2023-02-13T05:29:04.438Z,103650.06
2023-02-13T05:31:06.174Z,103651.78
2023-02-13T05:33:08.032Z,103658.06
2023-02-13T05:35:11.202Z,103663.63
2023-02-13T05:37:13.363Z,103657.31
2023-02-13T05:39:15.783Z,103650.16
2023-02-13T05:41:17.325Z,103654.72
2023-02-13T05:43:19.838Z,103658.28
2023-02-13T05:45:21.522Z,103654.00
2023-02-13T05:47:23.312Z,103659.28
2023-02-13T05:49:25.095Z,103655.72
2023-02-13T05:51:28.145Z,103659.41
2023-02-13T05:53:30.041Z,103660.28
2023-02-13T05:55:31.705Z,103666.66
2023-02-13T05:57:34.777Z,103673.94
2023-02-13T05:59:36.570Z,103673.81
2023-02-13T06:01:38.188Z,103673.06
2023-02-13T06:03:39.803Z,103668.50
2023-02-13T06:05:41.648Z,103671.22
2023-02-13T06:07:44.824Z,103681.09
2023-02-13T06:09:46.394Z,103684.78
2023-02-13T06:11:48.070Z,103683.03
2023-02-13T06:13:49.592Z,103685.88
2023-02-13T06:15:51.717Z,103679.44
2023-02-13T06:17:53.575Z,103677.75
2023-02-13T06:19:55.189Z,103676.88
2023-02-13T06:21:56.718Z,103679.69
2023-02-13T06:23:59.694Z,103691.41
2023-02-13T06:26:02.720Z,103679.69
2023-02-13T06:28:06.213Z,103682.53
2023-02-13T06:30:09.563Z,103676.25
2023-02-13T06:32:11.172Z,103672.56
2023-02-13T06:34:13.242Z,103685.25
2023-02-13T06:36:14.793Z,103684.38
2023-02-13T06:38:16.353Z,103683.50
2023-02-13T06:40:19.833Z,103679.94
2023-02-13T06:42:21.691Z,103684.38
2023-02-13T06:44:23.307Z,103689.78
2023-02-13T06:46:25.283Z,103696.19
2023-02-13T06:48:26.906Z,103691.63
2023-02-13T06:50:28.901Z,103699.75
2023-02-13T06:52:30.729Z,103694.44
2023-02-13T06:54:46.353Z,103693.47
2023-02-13T06:56:50.444Z,103690.78
2023-02-13T06:58:51.972Z,103689.03
2023-02-13T07:00:53.751Z,103698.16
2023-02-13T07:02:55.663Z,103701.59
2023-02-13T07:04:57.268Z,103689.03
2023-02-13T07:06:59.124Z,103684.47
2023-02-13T07:09:01.738Z,103685.50
2023-02-13T07:11:03.761Z,103693.47
2023-02-13T07:13:07.384Z,103687.19
2023-02-13T07:15:09.712Z,103688.19
2023-02-13T07:17:11.256Z,103688.06
2023-02-13T07:19:12.789Z,103686.31
2023-02-13T07:21:14.529Z,103689.03
2023-02-13T07:23:16.123Z,103693.47
2023-02-13T07:25:18.419Z,103692.59
2023-02-13T07:27:20.029Z,103693.47
2023-02-13T07:29:22.981Z,103693.63
2023-02-13T07:31:24.894Z,103692.50
2023-02-13T07:33:26.533Z,103685.25
2023-02-13T07:35:28.479Z,103691.53
2023-02-13T07:37:31.561Z,103688.81
2023-02-13T07:39:33.178Z,103696.81
2023-02-13T07:41:34.735Z,103690.53
2023-02-13T07:43:36.369Z,103698.66
2023-02-13T07:45:39.975Z,103703.09
2023-02-13T07:47:42.173Z,103702.13
2023-02-13T07:49:43.678Z,103695.84
2023-02-13T07:51:45.438Z,103704.69
2023-02-13T07:53:47.058Z,103708.28
2023-02-13T07:55:48.719Z,103711.84
2023-02-13T07:57:50.999Z,103705.47
2023-02-13T07:59:52.522Z,103713.59
2023-02-13T08:01:55.717Z,103719.88
2023-02-13T08:03:57.581Z,103710.88
2023-02-13T08:05:59.665Z,103706.19
2023-02-13T08:08:01.353Z,103705.22
2023-02-13T08:10:04.465Z,103699.81
2023-02-13T08:12:08.449Z,103711.38
2023-02-13T08:14:09.971Z,103705.13
2023-02-13T08:16:11.557Z,103711.28
2023-02-13T08:18:14.542Z,103706.72
2023-02-13T08:20:16.510Z,103701.16
2023-02-13T08:22:18.689Z,103695.75
2023-02-13T08:24:20.706Z,103700.44
2023-02-13T08:26:22.370Z,103710.94
2023-02-13T08:28:24.173Z,103706.38
2023-02-13T08:30:26.631Z,103711.66
2023-02-13T08:32:28.395Z,103709.09
2023-02-13T08:34:31.559Z,103711.56
2023-02-13T08:36:33.197Z,103714.13
2023-02-13T08:38:34.915Z,103720.41
2023-02-13T08:40:36.572Z,103715.00
2023-02-13T08:42:38.634Z,103720.31
2023-02-13T08:44:40.220Z,103719.44
2023-02-13T08:46:42.084Z,103734.59
2023-02-13T08:48:44.340Z,103729.06
2023-02-13T08:50:47.240Z,103735.34
2023-02-13T08:52:48.976Z,103727.09
2023-02-13T08:54:50.522Z,103734.25
2023-02-13T08:56:52.416Z,103732.31
2023-02-13T08:58:54.072Z,103735.75
2023-02-13T09:00:56.107Z,103731.19
2023-02-13T09:03:00.979Z,103725.53
2023-02-13T09:05:02.563Z,103726.41
2023-02-13T09:07:05.925Z,103727.25
2023-02-13T09:09:07.704Z,103729.84
2023-02-13T09:11:11.066Z,103730.47
2023-02-13T09:13:12.925Z,103729.50
2023-02-13T09:15:14.776Z,103733.06
2023-02-13T09:17:16.400Z,103736.50
2023-02-13T09:19:17.997Z,103729.13
2023-02-13T09:21:21.722Z,103737.13
2023-02-13T09:23:24.660Z,103728.91
2023-02-13T09:25:26.298Z,103725.22
2023-02-13T09:27:28.185Z,103728.91
2023-02-13T09:29:30.074Z,103731.34
2023-02-13T09:31:31.830Z,103730.38
2023-02-13T09:33:33.716Z,103731.97
2023-02-13T09:35:37.108Z,103726.44
2023-02-13T09:37:38.591Z,103721.91
2023-02-13T09:39:41.772Z,103738.03
2023-02-13T09:41:45.065Z,103723.50
2023-02-13T09:43:50.652Z,103718.84
2023-02-13T09:45:56.193Z,103725.09
2023-02-13T09:47:59.036Z,103721.41
2023-02-13T09:50:05.426Z,103716.75
2023-02-13T09:52:10.240Z,103730.06
2023-02-13T09:54:16.515Z,103733.63
2023-02-13T09:56:26.325Z,103732.63
2023-02-13T09:58:40.225Z,103737.84
2023-02-13T10:00:44.373Z,103742.25
2023-02-13T10:03:16.223Z,103738.34
2023-02-13T10:05:29.307Z,103746.38
2023-02-13T10:07:39.901Z,103748.94
2023-02-13T10:09:55.806Z,103752.53
2023-02-13T10:12:28.360Z,103750.44
2023-02-13T10:14:35.610Z,103750.44
2023-02-13T10:16:40.906Z,103753.03
2023-02-13T10:18:49.667Z,103745.63
2023-02-13T10:20:54.623Z,103740.09
2023-02-13T10:23:03.427Z,103740.81
2023-02-13T10:25:12.337Z,103740.72
2023-02-13T10:27:22.137Z,103735.16
2023-02-13T10:29:32.212Z,103740.56
2023-02-13T10:31:35.624Z,103742.19
2023-02-13T10:33:46.614Z,103742.06
2023-02-13T10:35:53.622Z,103741.84
2023-02-13T10:37:58.227Z,103751.69
2023-02-13T10:40:00.156Z,103748.97
2023-02-13T10:42:15.833Z,103743.44
2023-02-13T10:44:36.958Z,103746.88
2023-02-13T10:46:46.825Z,103745.91
2023-02-13T10:49:02.967Z,103742.19
2023-02-13T10:51:11.820Z,103740.22
2023-02-13T10:53:22.923Z,103736.63
2023-02-13T10:55:40.832Z,103737.38
2023-02-13T10:58:02.700Z,103735.28
2023-02-13T11:00:14.549Z,103745.16
2023-02-13T11:02:27.473Z,103733.44
2023-02-13T11:04:29.734Z,103732.56
2023-02-13T11:06:35.358Z,103728.00
2023-02-13T11:08:41.821Z,103726.91
2023-02-13T11:10:43.583Z,103735.78
2023-02-13T11:12:45.800Z,103732.94
2023-02-13T11:14:55.066Z,103738.25
2023-02-13T11:17:01.569Z,103725.41
2023-02-13T11:19:03.162Z,103719.97
2023-02-13T11:21:09.578Z,103714.28
2023-02-13T11:23:33.936Z,103732.06
2023-02-13T11:25:35.655Z,103728.38
2023-02-13T11:27:39.959Z,103729.97
2023-02-13T11:29:53.980Z,103733.44
2023-02-13T11:32:18.021Z,103731.44
2023-02-13T11:34:25.791Z,103733.16
2023-02-13T11:36:29.486Z,103723.19
2023-02-13T11:38:31.118Z,103718.72
2023-02-13T11:40:33.024Z,103706.63
2023-02-13T11:42:36.123Z,103722.06
2023-02-13T11:44:37.957Z,103729.22
2023-02-13T11:46:48.709Z,103720.81
2023-02-13T11:49:01.630Z,103730.56
2023-02-13T11:51:04.414Z,103734.13
2023-02-13T11:53:09.388Z,103725.88
2023-02-13T11:55:29.200Z,103722.78
2023-02-13T11:57:33.382Z,103727.34
2023-02-13T11:59:41.780Z,103716.47
2023-02-13T12:01:44.218Z,103714.50
2023-02-13T12:04:02.827Z,103712.53
2023-02-13T12:06:11.676Z,103713.50
2023-02-13T12:08:13.332Z,103705.34
2023-02-13T12:10:23.860Z,103720.53
2023-02-13T12:12:33.247Z,103725.97
2023-02-13T12:14:40.552Z,103729.53
2023-02-13T12:16:45.571Z,103738.56
2023-02-13T12:18:53.014Z,103737.59
2023-02-13T12:21:05.505Z,103713.34
2023-02-13T12:23:19.581Z,103735.97
2023-02-13T12:25:47.546Z,103729.66
2023-02-13T12:28:06.833Z,103726.09
2023-02-13T12:30:31.304Z,103724.38
2023-02-13T12:32:43.851Z,103723.38
2023-02-13T12:35:18.936Z,103721.41
2023-02-13T12:37:39.337Z,103713.13
2023-02-13T12:39:48.965Z,103710.53
2023-02-13T12:42:02.431Z,103696.09
2023-02-13T12:44:33.315Z,103708.41
2023-02-13T12:46:43.675Z,103705.69
2023-02-13T12:48:52.944Z,103700.28
2023-02-13T12:51:07.968Z,103685.81
2023-02-13T12:53:38.401Z,103681.84
2023-02-13T12:55:57.026Z,103677.28
2023-02-13T12:58:14.380Z,103671.13
2023-02-13T13:00:29.951Z,103676.31
2023-02-13T13:02:47.250Z,103665.44
2023-02-13T13:05:02.481Z,103659.84
2023-02-13T13:07:19.667Z,103649.84
2023-02-13T13:09:56.188Z,103660.47
2023-02-13T13:12:13.394Z,103665.03
2023-02-13T13:14:24.035Z,103656.16
2023-02-13T13:16:34.507Z,103658.88
2023-02-13T13:18:51.258Z,103648.88
2023-02-13T13:21:02.186Z,103654.31
2023-02-13T13:23:11.501Z,103648.72
2023-02-13T13:25:23.053Z,103648.72
2023-02-13T13:27:27.454Z,103651.44
2023-02-13T13:29:40.116Z,103651.31
2023-02-13T13:31:48.053Z,103652.31
2023-02-13T13:33:49.769Z,103646.00
2023-02-13T13:35:58.718Z,103648.59
2023-02-13T13:38:08.881Z,103657.63
2023-02-13T13:40:29.220Z,103664.03
2023-02-13T13:42:39.104Z,103655.78
2023-02-13T13:45:01.767Z,103661.94
2023-02-13T13:47:17.059Z,103661.22
2023-02-13T13:49:43.520Z,103656.75
2023-02-13T13:51:45.225Z,103652.31
2023-02-13T13:54:22.568Z,103654.91
2023-02-13T13:56:25.660Z,103648.88
2023-02-13T13:58:34.189Z,103641.97
2023-02-13T14:00:36.214Z,103637.41
2023-02-13T14:02:40.746Z,103651.09
2023-02-13T14:05:01.625Z,103635.81
2023-02-13T14:07:23.287Z,103638.38
2023-02-13T14:09:39.332Z,103636.94
2023-02-13T14:11:46.787Z,103634.47
2023-02-13T14:13:48.604Z,103638.91
2023-02-13T14:15:52.446Z,103629.03
2023-02-13T14:17:55.578Z,103632.63
2023-02-13T14:19:58.049Z,103626.44
2023-02-13T14:22:27.935Z,103645.34
2023-02-13T14:24:29.766Z,103641.91
2023-02-13T14:26:34.999Z,103651.16
2023-02-13T14:28:39.855Z,103647.44
2023-02-13T14:30:42.019Z,103647.19
2023-02-13T14:32:46.407Z,103643.22
2023-02-13T14:34:56.238Z,103650.38
2023-02-13T14:37:20.834Z,103639.75
2023-02-13T14:39:27.908Z,103641.31
2023-02-13T14:41:45.449Z,103632.53
2023-02-13T14:43:52.825Z,103633.13
2023-02-13T14:45:57.431Z,103637.31
2023-02-13T14:48:06.685Z,103645.19
2023-02-13T14:50:17.937Z,103652.97
2023-02-13T14:52:22.668Z,103646.38
2023-02-13T14:54:27.656Z,103638.97
2023-02-13T14:56:31.060Z,103637.50
2023-02-13T14:58:37.043Z,103621.81
2023-02-13T15:00:45.053Z,103621.66
2023-02-13T15:02:51.525Z,103637.97
2023-02-13T15:04:57.203Z,103621.31
2023-02-13T15:07:02.212Z,103618.59
2023-02-13T15:09:15.523Z,103621.44
2023-02-13T15:11:33.545Z,103622.59
2023-02-13T15:13:36.644Z,103628.41
2023-02-13T15:15:38.376Z,103638.56
2023-02-13T15:17:41.467Z,103645.25
2023-02-13T15:19:45.585Z,103642.91
2023-02-13T15:21:51.255Z,103641.44
2023-02-13T15:23:55.287Z,103637.13
2023-02-13T15:25:59.082Z,103639.25
2023-02-13T15:28:03.561Z,103633.34
2023-02-13T15:30:20.685Z,103649.03
2023-02-13T15:32:28.364Z,103651.28
2023-02-13T15:34:32.909Z,103649.06
2023-02-13T15:36:39.887Z,103643.19
2023-02-13T15:38:43.292Z,103634.66
2023-02-13T15:40:44.978Z,103634.06
2023-02-13T15:42:46.662Z,103640.00
2023-02-13T15:44:50.621Z,103638.69
2023-02-13T15:46:54.662Z,103643.50
2023-02-13T15:48:59.582Z,103634.00
2023-02-13T15:51:03.211Z,103637.22
2023-02-13T15:53:12.561Z,103638.56
2023-02-13T15:55:19.896Z,103647.94
2023-02-13T15:57:23.158Z,103644.78
2023-02-13T15:59:32.110Z,103648.72
2023-02-13T16:01:34.478Z,103645.50
2023-02-13T16:03:37.882Z,103648.72
2023-02-13T16:05:41.205Z,103654.38
2023-02-13T16:07:50.290Z,103661.88
2023-02-13T16:09:51.853Z,103670.38
2023-02-13T16:11:57.174Z,103665.44
2023-02-13T16:14:07.715Z,103666.44
2023-02-13T16:16:10.979Z,103675.03
2023-02-13T16:18:18.820Z,103666.44
2023-02-13T16:20:22.856Z,103686.63
2023-02-13T16:22:30.283Z,103683.28
2023-02-13T16:24:33.907Z,103687.22
2023-02-13T16:26:36.276Z,103688.69
2023-02-13T16:28:37.968Z,103686.94
2023-02-13T16:30:42.118Z,103680.91
2023-02-13T16:32:43.795Z,103692.00
2023-02-13T16:34:45.577Z,103686.94
2023-02-13T16:36:47.361Z,103686.31
2023-02-13T16:38:50.895Z,103694.66
2023-02-13T16:40:54.719Z,103704.00
2023-02-13T16:43:29.768Z,103703.25
2023-02-13T16:45:32.950Z,103709.16
2023-02-13T16:47:34.585Z,103702.22
2023-02-13T16:49:37.818Z,103695.31
2023-02-13T16:51:42.901Z,103701.84
2023-02-13T16:53:44.985Z,103704.78
2023-02-13T16:55:46.606Z,103700.44
2023-02-13T16:57:49.603Z,103699.81
2023-02-13T17:00:04.959Z,103705.25
2023-02-13T17:02:21.677Z,103693.78
2023-02-13T17:04:25.446Z,103701.03
2023-02-13T17:06:27.122Z,103698.44
2023-02-13T17:08:30.918Z,103703.00
2023-02-13T17:10:34.990Z,103703.09
2023-02-13T17:12:38.556Z,103705.19
2023-02-13T17:14:41.826Z,103710.50
2023-02-13T17:16:43.664Z,103708.75
2023-02-13T17:18:45.586Z,103702.47
2023-02-13T17:20:47.907Z,103704.44
2023-02-13T17:22:51.188Z,103714.41
2023-02-13T17:24:52.760Z,103709.09
2023-02-13T17:26:54.518Z,103703.69
2023-02-13T17:28:56.131Z,103699.38
2023-02-13T17:31:00.252Z,103712.03
2023-02-13T17:33:07.639Z,103702.06
2023-02-13T17:35:11.202Z,103696.78
2023-02-13T17:37:17.830Z,103699.50
2023-02-13T17:39:19.381Z,103705.00
2023-02-13T17:41:21.914Z,103697.00
2023-02-13T17:43:23.760Z,103695.28
2023-02-13T17:45:28.282Z,103696.16
2023-02-13T17:47:31.345Z,103704.47
2023-02-13T17:49:33.142Z,103698.97
2023-02-13T17:51:42.199Z,103695.38
2023-02-13T17:53:44.726Z,103702.78
2023-02-13T17:55:46.949Z,103707.31
2023-02-13T17:57:49.262Z,103699.31
2023-02-13T17:59:51.126Z,103707.41
2023-02-13T18:01:52.979Z,103704.84
2023-02-13T18:03:56.015Z,103718.25
2023-02-13T18:05:57.688Z,103713.94
2023-02-13T18:07:59.996Z,103711.22
2023-02-13T18:10:01.834Z,103716.50
2023-02-13T18:12:05.973Z,103720.22
2023-02-13T18:14:07.889Z,103723.81
2023-02-13T18:16:10.577Z,103731.06
2023-02-13T18:18:12.897Z,103728.34
2023-02-13T18:20:17.878Z,103724.78
2023-02-13T18:22:19.582Z,103718.59
2023-02-13T18:24:21.501Z,103722.16
2023-02-13T18:26:23.413Z,103721.28
2023-02-13T18:28:24.938Z,103724.00
2023-02-13T18:30:26.686Z,103730.28
2023-02-13T18:32:28.701Z,103730.28
2023-02-13T18:34:30.985Z,103726.69
2023-02-13T18:36:33.986Z,103721.28
2023-02-13T18:38:35.730Z,103730.28
2023-02-13T18:40:37.378Z,103730.28
2023-02-13T18:42:39.332Z,103742.13
2023-02-13T18:44:41.266Z,103733.13
2023-02-13T18:46:43.270Z,103739.41
2023-02-13T18:48:44.862Z,103733.13
2023-02-13T18:50:47.234Z,103739.50
2023-02-13T18:52:50.410Z,103736.69
2023-02-13T18:54:52.005Z,103735.06
2023-02-13T18:56:53.554Z,103737.66
2023-02-13T18:58:55.237Z,103738.63
2023-02-13T19:00:57.184Z,103732.34
2023-02-13T19:02:59.755Z,103727.94
2023-02-13T19:05:01.766Z,103729.78
2023-02-13T19:07:03.309Z,103728.91
2023-02-13T19:09:06.699Z,103728.91
2023-02-13T19:11:10.222Z,103732.47
2023-02-13T19:13:12.022Z,103732.47
2023-02-13T19:15:13.594Z,103735.19
2023-02-13T19:17:15.427Z,103737.03
2023-02-13T19:19:17.077Z,103738.00
2023-02-13T19:21:19.744Z,103732.59
2023-02-13T19:23:21.448Z,103739.84
2023-02-13T19:25:24.445Z,103730.84
2023-02-13T19:27:26.065Z,103742.66
2023-02-13T19:29:27.659Z,103739.19
2023-02-13T19:31:30.869Z,103744.59
2023-02-13T19:33:32.862Z,103741.03
2023-02-13T19:35:34.621Z,103745.72
2023-02-13T19:37:43.712Z,103749.28
2023-02-13T19:39:46.012Z,103747.53
2023-02-13T19:41:49.339Z,103754.78
2023-02-13T19:43:51.163Z,103755.75
2023-02-13T19:45:52.708Z,103747.78
2023-02-13T19:47:54.459Z,103757.63
2023-02-13T19:49:56.421Z,103750.47
2023-02-13T19:51:58.103Z,103751.44
2023-02-13T19:54:01.539Z,103755.13
2023-02-13T19:56:04.218Z,103750.56
2023-02-13T19:58:07.713Z,103749.72
2023-02-13T20:00:10.626Z,103756.97
2023-02-13T20:02:15.036Z,103761.53
2023-02-13T20:04:17.062Z,103758.06
2023-02-13T20:06:20.902Z,103762.50
2023-02-13T20:08:22.448Z,103753.59
2023-02-13T20:10:24.417Z,103765.31
2023-02-13T20:12:26.467Z,103757.19
2023-02-13T20:14:29.549Z,103749.19
2023-02-13T20:16:32.501Z,103742.03
2023-02-13T20:18:35.142Z,103750.06
2023-02-13T20:20:39.050Z,103749.19
2023-02-13T20:22:40.593Z,103752.00
2023-02-13T20:24:42.346Z,103755.69
2023-02-13T20:26:44.081Z,103757.53
2023-02-13T20:28:47.386Z,103754.84
2023-02-13T20:30:50.789Z,103756.66
2023-02-13T20:32:52.490Z,103756.66
2023-02-13T20:34:59.788Z,103757.53
2023-02-13T20:37:01.823Z,103752.22
2023-02-13T20:39:06.197Z,103760.34
2023-02-13T20:41:09.248Z,103760.34
2023-02-13T20:43:11.082Z,103763.06
2023-02-13T20:45:13.284Z,103759.56
2023-02-13T20:47:16.408Z,103763.16
2023-02-13T20:49:17.953Z,103759.56
2023-02-13T20:51:19.813Z,103761.44
2023-02-13T20:53:21.357Z,103765.97
2023-02-13T20:55:22.895Z,103762.41
2023-02-13T20:57:24.426Z,103766.84
2023-02-13T20:59:26.042Z,103769.66
2023-02-13T21:01:30.189Z,103772.34
2023-02-13T21:03:33.374Z,103766.94
2023-02-13T21:05:34.921Z,103764.34
2023-02-13T21:07:36.573Z,103768.78
2023-02-13T21:09:38.353Z,103770.63
2023-02-13T21:11:42.958Z,103776.03
2023-02-13T21:13:46.584Z,103767.03
2023-02-13T21:15:48.500Z,103782.31
2023-02-13T21:17:50.195Z,103775.16
2023-02-13T21:19:53.506Z,103767.03
2023-02-13T21:21:55.468Z,103777.03
2023-02-13T21:24:00.197Z,103775.28
2023-02-13T21:26:03.371Z,103778.75
2023-02-13T21:28:05.122Z,103777.03
2023-02-13T21:30:10.491Z,103777.03
2023-02-13T21:32:12.516Z,103775.16
2023-02-13T21:34:16.074Z,103780.56
2023-02-13T21:36:19.644Z,103772.47
2023-02-13T21:38:22.396Z,103771.63
2023-02-13T21:40:25.845Z,103776.03
2023-02-13T21:42:27.687Z,103781.44
2023-02-13T21:44:29.296Z,103778.75
2023-02-13T21:46:32.287Z,103778.75
2023-02-13T21:48:34.142Z,103776.03
2023-02-13T21:50:37.540Z,103772.47
2023-02-13T21:52:40.693Z,103770.63
2023-02-13T21:54:42.682Z,103774.31
2023-02-13T21:56:44.434Z,103783.28
2023-02-13T21:58:47.345Z,103778.75
2023-02-13T22:00:48.915Z,103785.03
2023-02-13T22:02:50.601Z,103777.88
2023-02-13T22:04:52.689Z,103784.16
2023-02-13T22:06:54.410Z,103786.84
2023-02-13T22:08:58.648Z,103780.56
2023-02-13T22:11:01.334Z,103784.16
2023-02-13T22:13:03.791Z,103778.75
2023-02-13T22:15:05.937Z,103783.28
2023-02-13T22:17:08.068Z,103787.72
2023-02-13T22:19:13.586Z,103790.44
2023-02-13T22:21:17.992Z,103790.44
2023-02-13T22:23:19.899Z,103779.75
2023-02-13T22:25:23.334Z,103790.44
2023-02-13T22:27:25.038Z,103780.69
2023-02-13T22:29:26.877Z,103787.72
2023-02-13T22:31:28.896Z,103787.84
2023-02-13T22:33:30.770Z,103785.97
2023-02-13T22:35:32.306Z,103783.28
2023-02-13T22:37:33.970Z,103777.13
2023-02-13T22:39:35.535Z,103786.97
2023-02-13T22:41:38.966Z,103781.66
2023-02-13T22:43:41.140Z,103786.22
2023-02-13T22:45:43.013Z,103792.50
2023-02-13T22:47:44.908Z,103791.63
2023-02-13T22:49:46.659Z,103783.63
2023-02-13T22:51:48.241Z,103790.75
2023-02-13T22:53:52.837Z,103787.22
2023-02-13T22:55:54.749Z,103783.72
2023-02-13T22:57:57.740Z,103781.78
2023-02-13T22:59:59.474Z,103782.84
2023-02-13T23:02:01.064Z,103785.47
2023-02-13T23:04:02.703Z,103777.66
2023-02-13T23:06:04.984Z,103788.28
2023-02-13T23:08:07.044Z,103779.41
2023-02-13T23:10:09.321Z,103777.66
2023-02-13T23:12:11.382Z,103777.56
2023-02-13T23:14:15.831Z,103779.41
2023-02-13T23:16:17.889Z,103774.97
2023-02-13T23:18:19.558Z,103769.56
2023-02-13T23:20:22.233Z,103763.41
2023-02-13T23:22:26.081Z,103772.34
2023-02-13T23:24:27.856Z,103775.06
2023-02-13T23:26:29.438Z,103777.03
2023-02-13T23:28:30.997Z,103771.63
2023-02-13T23:30:34.081Z,103768.91
2023-02-13T23:32:35.657Z,103774.31
2023-02-13T23:34:37.344Z,103771.72
2023-02-13T23:36:38.980Z,103781.56
2023-02-13T23:38:40.684Z,103770.75
2023-02-13T23:40:42.464Z,103779.00
2023-02-13T23:42:44.605Z,103786.09
2023-02-13T23:44:46.272Z,103783.53
2023-02-13T23:46:49.343Z,103796.94
2023-02-13T23:48:51.128Z,103792.50
2023-02-13T23:50:52.939Z,103789.69